createdAt,value
2023-04-20T00:01:36.275Z,100696.84
2023-04-20T00:04:04.567Z,100691.59
2023-04-20T00:06:34.166Z,100693.22
2023-04-20T00:09:02.123Z,100689.78
2023-04-20T00:11:30.052Z,100686.31
2023-04-20T00:13:57.553Z,100687.16
2023-04-20T00:16:26.252Z,100686.25
2023-04-20T00:18:54.223Z,100684.59
2023-04-20T00:21:25.207Z,100679.41
2023-04-20T00:23:52.698Z,100674.16
2023-04-20T00:26:21.263Z,100671.53
2023-04-20T00:28:49.226Z,100660.25
2023-04-20T00:31:16.853Z,100662.03
2023-04-20T00:33:44.518Z,100667.16
2023-04-20T00:36:12.387Z,100665.41
2023-04-20T00:38:39.852Z,100668.78
2023-04-20T00:41:07.784Z,100668.84
2023-04-20T00:43:36.171Z,100680.03
2023-04-20T00:46:04.026Z,100685.25
2023-04-20T00:48:31.938Z,100688.69
2023-04-20T00:50:59.451Z,100699.84
2023-04-20T00:53:26.638Z,100706.75
2023-04-20T00:58:29.854Z,100709.31
2023-04-20T01:00:57.767Z,100715.28
2023-04-20T01:03:25.741Z,100708.31
2023-04-20T01:05:54.027Z,100701.44
2023-04-20T01:08:26.171Z,100698.88
2023-04-20T01:10:54.508Z,100681.63
2023-04-20T01:13:22.213Z,100672.16
2023-04-20T01:15:50.078Z,100657.41
2023-04-20T01:18:20.063Z,100647.88
2023-04-20T01:20:48.025Z,100634.03
2023-04-20T01:23:16.069Z,100620.06
2023-04-20T01:25:44.182Z,100619.91
2023-04-20T01:28:14.542Z,100624.94
2023-04-20T01:30:43.018Z,100627.47
2023-04-20T01:33:10.706Z,100623.13
2023-04-20T01:35:38.940Z,100623.78
2023-04-20T01:38:06.892Z,100625.47
2023-04-20T01:40:35.354Z,100628.91
2023-04-20T01:43:03.289Z,100635.03
2023-04-20T01:45:31.426Z,100630.69
2023-04-20T01:47:59.594Z,100632.47
2023-04-20T01:50:27.240Z,100636.88
2023-04-20T01:52:55.666Z,100633.41
2023-04-20T01:55:23.636Z,100635.19
2023-04-20T01:57:51.719Z,100630.91
2023-04-20T02:00:20.423Z,100631.81
2023-04-20T02:02:48.463Z,100634.34
2023-04-20T02:05:16.224Z,100635.16
2023-04-20T02:07:43.742Z,100634.31
2023-04-20T02:10:12.245Z,100633.47
2023-04-20T02:12:39.895Z,100634.34
2023-04-20T02:15:10.318Z,100629.16
2023-04-20T02:17:38.322Z,100632.63
2023-04-20T02:20:11.969Z,100630.94
2023-04-20T02:22:40.162Z,100635.28
2023-04-20T02:25:07.992Z,100636.97
2023-04-20T02:27:35.700Z,100640.47
2023-04-20T02:30:04.341Z,100643.03
2023-04-20T02:32:32.339Z,100638.72
2023-04-20T02:35:00.069Z,100633.66
2023-04-20T02:37:27.721Z,100634.50
2023-04-20T02:39:55.775Z,100636.25
2023-04-20T02:42:23.877Z,100624.22
2023-04-20T02:44:52.999Z,100627.66
2023-04-20T02:47:20.900Z,100627.66
2023-04-20T02:49:48.486Z,100620.72
2023-04-20T02:52:15.714Z,100619.00
2023-04-20T02:54:43.582Z,100625.06
2023-04-20T02:57:11.803Z,100619.91
2023-04-20T02:59:39.875Z,100619.03
2023-04-20T03:02:08.150Z,100620.72
2023-04-20T03:04:35.547Z,100613.84
2023-04-20T03:07:04.971Z,100617.25
2023-04-20T03:09:32.899Z,100614.66
2023-04-20T03:12:02.634Z,100611.19
2023-04-20T03:14:31.195Z,100619.75
2023-04-20T03:16:59.476Z,100615.38
2023-04-20T03:19:27.652Z,100612.88
2023-04-20T03:21:55.804Z,100609.34
2023-04-20T03:24:24.209Z,100611.81
2023-04-20T03:26:52.306Z,100616.16
2023-04-20T03:29:20.569Z,100616.19
2023-04-20T03:31:48.809Z,100612.78
2023-04-20T03:34:16.489Z,100616.25
2023-04-20T03:36:44.537Z,100605.94
2023-04-20T03:39:12.573Z,100604.22
2023-04-20T03:41:40.259Z,100602.50
2023-04-20T03:44:08.635Z,100600.75
2023-04-20T03:46:36.543Z,100593.00
2023-04-20T03:49:04.587Z,100601.56
2023-04-20T03:51:32.621Z,100603.31
2023-04-20T03:54:00.598Z,100603.34
2023-04-20T03:56:28.598Z,100597.34
2023-04-20T03:58:56.188Z,100600.81
2023-04-20T04:01:24.852Z,100599.06
2023-04-20T04:03:52.940Z,100599.03
2023-04-20T04:06:20.766Z,100608.50
2023-04-20T04:08:48.821Z,100610.19
2023-04-20T04:11:16.640Z,100605.88
2023-04-20T04:13:44.609Z,100603.22
2023-04-20T04:16:12.522Z,100608.34
2023-04-20T04:18:44.016Z,100608.22
2023-04-20T04:21:11.592Z,100607.28
2023-04-20T04:23:39.232Z,100606.53
2023-04-20T04:26:07.433Z,100609.94
2023-04-20T04:28:35.683Z,100619.38
2023-04-20T04:31:06.091Z,100621.16
2023-04-20T04:33:34.352Z,100622.97
2023-04-20T04:36:02.657Z,100621.19
2023-04-20T04:38:31.718Z,100631.50
2023-04-20T04:40:59.773Z,100627.25
2023-04-20T04:43:28.192Z,100628.91
2023-04-20T04:45:58.504Z,100632.28
2023-04-20T04:48:25.724Z,100633.28
2023-04-20T04:50:53.705Z,100628.09
2023-04-20T04:53:21.839Z,100628.16
2023-04-20T04:55:49.881Z,100629.94
2023-04-20T04:58:17.893Z,100624.84
2023-04-20T05:00:45.483Z,100629.25
2023-04-20T05:03:13.735Z,100619.75
2023-04-20T05:05:42.125Z,100615.41
2023-04-20T05:08:10.046Z,100619.75
2023-04-20T05:10:38.162Z,100626.63
2023-04-20T05:13:05.915Z,100630.06
2023-04-20T05:15:34.641Z,100632.66
2023-04-20T05:18:02.835Z,100637.97
2023-04-20T05:20:31.247Z,100645.84
2023-04-20T05:22:58.814Z,100640.53
2023-04-20T05:25:26.797Z,100638.91
2023-04-20T05:27:54.976Z,100644.22
2023-04-20T05:30:22.581Z,100636.53
2023-04-20T05:32:52.346Z,100639.13
2023-04-20T05:35:21.600Z,100633.91
2023-04-20T05:37:49.585Z,100637.38
2023-04-20T05:40:17.383Z,100639.88
2023-04-20T05:42:45.382Z,100639.06
2023-04-20T05:45:13.049Z,100644.34
2023-04-20T05:47:41.332Z,100647.00
2023-04-20T05:50:11.658Z,100648.06
2023-04-20T05:52:39.376Z,100650.72
2023-04-20T05:55:09.426Z,100651.63
2023-04-20T05:57:42.986Z,100651.69
2023-04-20T06:00:13.922Z,100656.94
2023-04-20T06:02:41.627Z,100660.56
2023-04-20T06:05:11.392Z,100671.00
2023-04-20T06:07:39.283Z,100660.75
2023-04-20T06:10:09.543Z,100662.53
2023-04-20T06:12:37.386Z,100664.25
2023-04-20T06:15:09.141Z,100657.41
2023-04-20T06:17:41.178Z,100665.28
2023-04-20T06:20:12.112Z,100659.41
2023-04-20T06:23:03.567Z,100662.06
2023-04-20T06:25:31.965Z,100666.50
2023-04-20T06:28:00.265Z,100661.38
2023-04-20T06:30:28.394Z,100662.34
2023-04-20T06:32:56.513Z,100664.00
2023-04-20T06:35:24.594Z,100668.25
2023-04-20T06:37:52.217Z,100666.44
2023-04-20T06:40:19.592Z,100660.25
2023-04-20T06:42:47.984Z,100657.53
2023-04-20T06:45:15.773Z,100661.81
2023-04-20T06:47:44.876Z,100665.94
2023-04-20T06:50:13.110Z,100661.59
2023-04-20T06:52:42.109Z,100662.34
2023-04-20T06:55:10.211Z,100662.28
2023-04-20T06:57:39.956Z,100669.19
2023-04-20T07:00:09.805Z,100686.50
2023-04-20T07:02:47.572Z,100677.94
2023-04-20T07:05:15.934Z,100685.78
2023-04-20T07:07:43.595Z,100694.44
2023-04-20T07:10:13.570Z,100684.94
2023-04-20T07:12:43.203Z,100686.69
2023-04-20T07:15:11.755Z,100686.69
2023-04-20T07:17:39.907Z,100693.72
2023-04-20T07:20:10.232Z,100686.06
2023-04-20T07:22:38.672Z,100680.97
2023-04-20T07:25:08.613Z,100681.91
2023-04-20T07:27:37.296Z,100676.75
2023-04-20T07:30:08.263Z,100668.25
2023-04-20T07:32:36.102Z,100684.75
2023-04-20T07:35:04.350Z,100694.34
2023-04-20T07:37:32.108Z,100689.25
2023-04-20T07:40:00.198Z,100695.34
2023-04-20T07:42:27.955Z,100690.19
2023-04-20T07:44:55.657Z,100701.44
2023-04-20T07:47:23.767Z,100701.41
2023-04-20T07:49:52.051Z,100701.31
2023-04-20T07:52:20.403Z,100709.94
2023-04-20T07:54:48.010Z,100704.78
2023-04-20T07:57:15.629Z,100711.69
2023-04-20T07:59:43.441Z,100702.97
2023-04-20T08:02:12.308Z,100702.16
2023-04-20T08:04:40.615Z,100697.84
2023-04-20T08:07:09.568Z,100689.19
2023-04-20T08:09:37.452Z,100697.09
2023-04-20T08:12:06.849Z,100696.25
2023-04-20T08:14:34.820Z,100692.81
2023-04-20T08:17:02.734Z,100693.81
2023-04-20T08:19:30.346Z,100695.66
2023-04-20T08:21:59.353Z,100688.72
2023-04-20T08:24:27.580Z,100691.34
2023-04-20T08:26:55.689Z,100700.91
2023-04-20T08:29:23.641Z,100700.09
2023-04-20T08:31:51.872Z,100700.16
2023-04-20T08:34:19.752Z,100695.81
2023-04-20T08:36:47.471Z,100699.25
2023-04-20T08:39:19.349Z,100691.44
2023-04-20T08:41:48.089Z,100696.72
2023-04-20T08:44:15.760Z,100700.25
2023-04-20T08:46:43.468Z,100702.06
2023-04-20T08:49:13.046Z,100700.38
2023-04-20T08:51:41.724Z,100703.84
2023-04-20T08:54:10.633Z,100695.19
2023-04-20T08:56:39.583Z,100693.50
2023-04-20T08:59:10.243Z,100692.63
2023-04-20T09:01:39.433Z,100696.94
2023-04-20T09:04:20.099Z,100689.97
2023-04-20T09:06:51.511Z,100695.16
2023-04-20T09:09:42.333Z,100696.84
2023-04-20T09:12:10.412Z,100695.91
2023-04-20T09:14:44.648Z,100695.81
2023-04-20T09:17:14.800Z,100694.84
2023-04-20T09:19:44.608Z,100690.44
2023-04-20T09:22:15.084Z,100698.19
2023-04-20T09:24:42.809Z,100696.34
2023-04-20T09:27:16.684Z,100689.38
2023-04-20T09:29:44.362Z,100687.66
2023-04-20T09:32:43.157Z,100690.34
2023-04-20T09:35:11.048Z,100698.25
2023-04-20T09:37:48.312Z,100696.72
2023-04-20T09:40:16.551Z,100700.28
2023-04-20T09:42:44.648Z,100697.81
2023-04-20T09:45:16.521Z,100691.81
2023-04-20T09:47:44.505Z,100690.94
2023-04-20T09:50:24.848Z,100696.16
2023-04-20T09:52:54.297Z,100695.31
2023-04-20T09:55:21.855Z,100702.19
2023-04-20T09:57:49.944Z,100701.38
2023-04-20T10:00:19.911Z,100703.91
2023-04-20T10:02:48.551Z,100707.38
2023-04-20T10:05:17.049Z,100703.03
2023-04-20T10:07:44.708Z,100709.94
2023-04-20T10:10:15.796Z,100709.91
2023-04-20T10:12:48.914Z,100712.41
2023-04-20T10:15:16.715Z,100716.66
2023-04-20T10:17:44.127Z,100708.00
2023-04-20T10:20:21.234Z,100705.34
2023-04-20T10:22:49.004Z,100711.31
2023-04-20T10:25:19.445Z,100706.97
2023-04-20T10:28:21.357Z,100720.75
2023-04-20T10:30:52.342Z,100722.50
2023-04-20T10:33:20.384Z,100725.91
2023-04-20T10:36:10.259Z,100728.38
2023-04-20T10:38:38.264Z,100728.34
2023-04-20T10:41:13.798Z,100742.19
2023-04-20T10:43:43.356Z,100736.06
2023-04-20T10:46:26.803Z,100741.22
2023-04-20T10:48:56.054Z,100734.19
2023-04-20T10:51:43.560Z,100741.91
2023-04-20T10:54:11.569Z,100733.16
2023-04-20T10:56:46.569Z,100730.50
2023-04-20T10:59:19.397Z,100725.22
2023-04-20T11:01:47.578Z,100731.13
2023-04-20T11:04:18.300Z,100721.63
2023-04-20T11:06:48.144Z,100715.50
2023-04-20T11:09:23.663Z,100725.84
2023-04-20T11:12:29.719Z,100724.06
2023-04-20T11:14:58.772Z,100733.69
2023-04-20T11:17:36.464Z,100721.69
2023-04-20T11:20:11.076Z,100719.13
2023-04-20T11:22:39.580Z,100719.25
2023-04-20T11:25:12.654Z,100707.84
2023-04-20T11:27:41.292Z,100697.56
2023-04-20T11:30:10.098Z,100697.63
2023-04-20T11:32:38.383Z,100687.31
2023-04-20T11:35:08.782Z,100677.00
2023-04-20T11:37:51.572Z,100679.69
2023-04-20T11:40:26.681Z,100678.03
2023-04-20T11:42:56.337Z,100681.56
2023-04-20T11:45:24.514Z,100678.06
2023-04-20T11:47:52.757Z,100684.19
2023-04-20T11:50:21.233Z,100677.28
2023-04-20T11:52:49.629Z,100683.34
2023-04-20T11:55:17.849Z,100689.44
2023-04-20T11:57:48.392Z,100679.94
2023-04-20T12:00:18.170Z,100686.00
2023-04-20T12:02:45.889Z,100685.16
2023-04-20T12:05:13.853Z,100685.97
2023-04-20T12:07:41.894Z,100692.16
2023-04-20T12:10:11.583Z,100681.91
2023-04-20T12:12:39.515Z,100681.19
2023-04-20T12:15:11.527Z,100678.72
2023-04-20T12:17:39.873Z,100682.22
2023-04-20T12:20:12.689Z,100674.44
2023-04-20T12:22:41.013Z,100676.19
2023-04-20T12:25:09.947Z,100670.13
2023-04-20T12:27:38.036Z,100663.19
2023-04-20T12:30:09.388Z,100672.78
2023-04-20T12:32:40.432Z,100681.38
2023-04-20T12:35:09.576Z,100679.59
2023-04-20T12:37:37.642Z,100676.03
2023-04-20T12:40:08.825Z,100661.97
2023-04-20T12:42:36.518Z,100660.03
2023-04-20T12:45:05.300Z,100650.28
2023-04-20T12:47:32.913Z,100656.47
2023-04-20T12:50:00.623Z,100654.63
2023-04-20T12:52:29.799Z,100649.97
2023-04-20T12:54:57.776Z,100652.53
2023-04-20T12:57:25.599Z,100650.00
2023-04-20T12:59:53.640Z,100654.69
2023-04-20T13:02:22.519Z,100648.66
2023-04-20T13:04:50.794Z,100645.41
2023-04-20T13:07:18.492Z,100644.25
2023-04-20T13:09:45.641Z,100641.69
2023-04-20T13:12:13.780Z,100645.25
2023-04-20T13:14:41.825Z,100640.94
2023-04-20T13:17:10.016Z,100645.53
2023-04-20T13:19:37.874Z,100637.16
2023-04-20T13:22:06.917Z,100641.31
2023-04-20T13:24:34.678Z,100657.91
2023-04-20T13:27:02.588Z,100656.09
2023-04-20T13:29:30.440Z,100652.28
2023-04-20T13:31:58.602Z,100650.81
2023-04-20T13:34:26.120Z,100656.91
2023-04-20T13:36:54.179Z,100649.72
2023-04-20T13:39:22.058Z,100652.00
2023-04-20T13:41:50.234Z,100646.41
2023-04-20T13:44:17.987Z,100645.00
2023-04-20T13:46:45.922Z,100645.06
2023-04-20T13:49:14.429Z,100643.94
2023-04-20T13:51:42.440Z,100635.72
2023-04-20T13:54:10.394Z,100638.22
2023-04-20T13:56:38.505Z,100644.41
2023-04-20T13:59:06.404Z,100641.94
2023-04-20T14:01:34.961Z,100647.31
2023-04-20T14:04:03.352Z,100646.53
2023-04-20T14:06:31.208Z,100655.63
2023-04-20T14:08:58.678Z,100658.16
2023-04-20T14:11:26.909Z,100664.41
2023-04-20T14:13:54.569Z,100655.28
2023-04-20T14:16:23.015Z,100650.41
2023-04-20T14:18:50.586Z,100659.31
2023-04-20T14:21:25.720Z,100663.78
2023-04-20T14:23:54.678Z,100667.34
2023-04-20T14:26:22.202Z,100673.41
2023-04-20T14:28:51.820Z,100675.13
2023-04-20T14:31:19.939Z,100670.81
2023-04-20T14:33:47.804Z,100668.28
2023-04-20T14:36:15.315Z,100664.88
2023-04-20T14:38:43.660Z,100665.81
2023-04-20T14:41:11.263Z,100672.75
2023-04-20T14:43:39.230Z,100670.16
2023-04-20T14:46:07.584Z,100679.72
2023-04-20T14:48:38.703Z,100681.47
2023-04-20T14:51:07.287Z,100676.22
2023-04-20T14:53:34.820Z,100681.41
2023-04-20T14:56:02.855Z,100672.75
2023-04-20T14:58:30.817Z,100667.53
2023-04-20T15:00:58.782Z,100674.44
2023-04-20T15:03:27.179Z,100669.19
2023-04-20T15:05:59.403Z,100682.19
2023-04-20T15:08:27.773Z,100676.09
2023-04-20T15:10:56.833Z,100669.03
2023-04-20T15:13:25.057Z,100658.53
2023-04-20T15:15:54.986Z,100656.00
2023-04-20T15:18:23.662Z,100660.47
2023-04-20T15:20:53.977Z,100663.19
2023-04-20T15:23:24.758Z,100659.72
2023-04-20T15:25:53.450Z,100660.66
2023-04-20T15:28:21.038Z,100658.00
2023-04-20T15:30:49.016Z,100659.75
2023-04-20T15:33:17.520Z,100652.81
2023-04-20T15:35:48.307Z,100665.75
2023-04-20T15:38:16.578Z,100666.59
2023-04-20T15:40:45.129Z,100663.13
2023-04-20T15:43:13.382Z,100654.47
2023-04-20T15:45:42.867Z,100654.44
2023-04-20T15:48:13.118Z,100651.75
2023-04-20T15:50:40.584Z,100650.81
2023-04-20T15:53:08.255Z,100650.72
2023-04-20T15:55:39.504Z,100655.88
2023-04-20T15:58:07.295Z,100657.72
2023-04-20T16:00:35.183Z,100662.22
2023-04-20T16:03:03.338Z,100666.63
2023-04-20T16:05:30.982Z,100661.47
2023-04-20T16:07:58.955Z,100672.78
2023-04-20T16:10:27.732Z,100672.72
2023-04-20T16:12:56.108Z,100668.28
2023-04-20T16:15:23.588Z,100664.41
2023-04-20T16:17:51.103Z,100662.91
2023-04-20T16:20:18.936Z,100655.13
2023-04-20T16:22:46.429Z,100651.91
2023-04-20T16:25:22.828Z,100653.91
2023-04-20T16:27:51.723Z,100664.13
2023-04-20T16:30:19.468Z,100653.72
2023-04-20T16:32:47.115Z,100660.69
2023-04-20T16:35:14.817Z,100664.25
2023-04-20T16:37:42.785Z,100660.00
2023-04-20T16:40:11.838Z,100661.63
2023-04-20T16:42:39.922Z,100671.63
2023-04-20T16:45:10.195Z,100683.13
2023-04-20T16:47:38.279Z,100662.34
2023-04-20T16:50:09.276Z,100675.31
2023-04-20T16:52:37.123Z,100674.34
2023-04-20T16:55:06.454Z,100674.19
2023-04-20T16:57:34.042Z,100670.56
2023-04-20T17:00:02.251Z,100677.41
2023-04-20T17:02:33.184Z,100681.59
2023-04-20T17:05:00.733Z,100680.63
2023-04-20T17:07:29.228Z,100685.75
2023-04-20T17:09:57.445Z,100698.59
2023-04-20T17:12:25.628Z,100696.88
2023-04-20T17:14:53.090Z,100698.50
2023-04-20T17:17:21.106Z,100708.78
2023-04-20T17:19:52.146Z,100706.09
2023-04-20T17:22:20.065Z,100737.22
2023-04-20T17:24:48.092Z,100740.69
2023-04-20T17:27:16.128Z,100752.72
2023-04-20T17:29:44.937Z,100763.06
2023-04-20T17:32:13.409Z,100757.78
2023-04-20T17:34:41.958Z,100776.75
2023-04-20T17:37:13.130Z,100777.56
2023-04-20T17:39:40.889Z,100773.09
2023-04-20T17:42:08.008Z,100791.16
2023-04-20T17:44:36.196Z,100797.06
2023-04-20T17:47:04.312Z,100790.13
2023-04-20T17:49:32.641Z,100791.66
2023-04-20T17:52:00.624Z,100798.47
2023-04-20T17:54:28.837Z,100801.91
2023-04-20T17:56:58.148Z,100800.94
2023-04-20T17:59:25.852Z,100804.41
2023-04-20T18:01:54.111Z,100803.50
2023-04-20T18:04:24.839Z,100805.91
2023-04-20T18:06:52.795Z,100795.59
2023-04-20T18:09:20.515Z,100804.94
2023-04-20T18:11:48.506Z,100797.19
2023-04-20T18:14:16.604Z,100779.06
2023-04-20T18:16:44.630Z,100780.03
2023-04-20T18:19:12.835Z,100773.88
2023-04-20T18:21:41.007Z,100768.72
2023-04-20T18:24:08.997Z,100765.13
2023-04-20T18:26:37.146Z,100758.16
2023-04-20T18:29:04.845Z,100752.03
2023-04-20T18:31:35.491Z,100772.56
2023-04-20T18:34:03.420Z,100766.34
2023-04-20T18:36:32.229Z,100755.09
2023-04-20T18:38:59.945Z,100758.47
2023-04-20T18:41:29.405Z,100760.16
2023-04-20T18:43:57.017Z,100771.28
2023-04-20T18:46:25.779Z,100776.41
2023-04-20T18:48:55.932Z,100776.34
2023-04-20T18:51:23.778Z,100787.50
2023-04-20T18:53:51.547Z,100784.03
2023-04-20T18:56:19.966Z,100779.72
2023-04-20T18:58:48.700Z,100790.06
2023-04-20T19:01:16.560Z,100798.63
2023-04-20T19:03:47.669Z,100800.44
2023-04-20T19:06:16.359Z,100805.56
2023-04-20T19:08:43.978Z,100802.09
2023-04-20T19:11:12.461Z,100810.66
2023-04-20T19:13:44.509Z,100812.31
2023-04-20T19:16:12.486Z,100802.94
2023-04-20T19:18:40.324Z,100812.47
2023-04-20T19:21:07.530Z,100817.66
2023-04-20T19:23:36.306Z,100821.13
2023-04-20T19:26:04.589Z,100824.59
2023-04-20T19:28:32.653Z,100828.06
2023-04-20T19:31:00.458Z,100818.53
2023-04-20T19:33:27.976Z,100810.78
2023-04-20T19:35:56.139Z,100809.00
2023-04-20T19:38:26.538Z,100803.78
2023-04-20T19:40:54.288Z,100809.69
2023-04-20T19:43:23.236Z,100811.34
2023-04-20T19:45:51.479Z,100809.44
2023-04-20T19:48:18.989Z,100802.53
2023-04-20T19:50:46.917Z,100804.28
2023-04-20T19:53:15.501Z,100807.69
2023-04-20T19:55:43.224Z,100797.34
2023-04-20T19:58:11.052Z,100798.06
2023-04-20T20:00:38.922Z,100810.06
2023-04-20T20:03:08.275Z,100810.78
2023-04-20T20:05:36.186Z,100812.28
2023-04-20T20:08:04.409Z,100820.97
2023-04-20T20:10:32.632Z,100814.84
2023-04-20T20:13:00.233Z,100812.16
2023-04-20T20:15:28.223Z,100804.44
2023-04-20T20:17:55.947Z,100795.88
2023-04-20T20:20:23.932Z,100785.47
2023-04-20T20:22:51.472Z,100776.81
2023-04-20T20:25:22.076Z,100765.59
2023-04-20T20:27:55.887Z,100766.22
2023-04-20T20:30:24.055Z,100766.28
2023-04-20T20:32:51.825Z,100775.59
2023-04-20T20:35:19.898Z,100781.53
2023-04-20T20:37:48.484Z,100788.25
2023-04-20T20:40:16.011Z,100794.16
2023-04-20T20:42:45.369Z,100798.53
2023-04-20T20:45:13.303Z,100802.00
2023-04-20T20:47:41.115Z,100805.44
2023-04-20T20:50:10.080Z,100810.50
2023-04-20T20:52:38.229Z,100813.28
2023-04-20T20:55:06.692Z,100827.13
2023-04-20T20:57:34.365Z,100821.19
2023-04-20T21:00:02.044Z,100817.84
2023-04-20T21:02:30.039Z,100811.84
2023-04-20T21:05:00.482Z,100810.78
2023-04-20T21:07:28.059Z,100800.44
2023-04-20T21:09:55.796Z,100809.06
2023-04-20T21:12:23.370Z,100819.38
2023-04-20T21:14:52.247Z,100817.56
2023-04-20T21:17:20.429Z,100817.50
2023-04-20T21:19:47.840Z,100825.38
2023-04-20T21:22:15.498Z,100821.88
2023-04-20T21:24:44.197Z,100823.03
2023-04-20T21:27:11.947Z,100824.81
2023-04-20T21:29:39.873Z,100826.56
2023-04-20T21:32:07.287Z,100817.19
2023-04-20T21:34:35.028Z,100813.66
2023-04-20T21:37:06.233Z,100817.97
2023-04-20T21:39:34.177Z,100812.00
2023-04-20T21:42:03.675Z,100813.63
2023-04-20T21:44:31.596Z,100806.88
2023-04-20T21:46:59.153Z,100806.03
2023-04-20T21:49:27.538Z,100806.09
2023-04-20T21:51:55.275Z,100812.84
2023-04-20T21:54:23.196Z,100803.50
2023-04-20T21:56:50.722Z,100810.53
2023-04-20T21:59:20.480Z,100817.19
2023-04-20T22:01:48.300Z,100817.16
2023-04-20T22:04:16.893Z,100813.63
2023-04-20T22:06:45.064Z,100817.25
2023-04-20T22:09:13.449Z,100820.69
2023-04-20T22:11:41.060Z,100826.63
2023-04-20T22:14:09.008Z,100830.13
2023-04-20T22:16:36.534Z,100835.41
2023-04-20T22:19:04.573Z,100843.09
2023-04-20T22:21:32.204Z,100838.03
2023-04-20T22:23:59.417Z,100838.19
2023-04-20T22:26:27.436Z,100836.41
2023-04-20T22:28:55.505Z,100839.03
2023-04-20T22:31:23.060Z,100835.59
2023-04-20T22:33:51.035Z,100838.31
2023-04-20T22:36:18.957Z,100836.66
2023-04-20T22:38:46.992Z,100831.47
2023-04-20T22:41:17.310Z,100832.31
2023-04-20T22:43:45.202Z,100837.44
2023-04-20T22:46:13.299Z,100844.34
2023-04-20T22:48:41.782Z,100839.03
2023-04-20T22:51:09.766Z,100844.22
2023-04-20T22:53:37.771Z,100833.78
2023-04-20T22:56:08.716Z,100839.88
2023-04-20T22:58:36.766Z,100837.28
2023-04-20T23:01:04.433Z,100826.13
2023-04-20T23:03:36.336Z,100830.28
2023-04-20T23:06:05.184Z,100832.09
2023-04-20T23:08:33.575Z,100825.25
2023-04-20T23:11:01.557Z,100828.75
2023-04-20T23:13:29.208Z,100825.25
2023-04-20T23:15:57.205Z,100833.78
2023-04-20T23:18:25.368Z,100828.56
2023-04-20T23:20:53.134Z,100825.91
2023-04-20T23:23:21.100Z,100812.13
2023-04-20T23:25:49.157Z,100818.06
2023-04-20T23:28:17.070Z,100817.13
2023-04-20T23:30:45.260Z,100813.66
2023-04-20T23:33:13.370Z,100805.72
2023-04-20T23:35:41.135Z,100802.13
2023-04-20T23:38:09.286Z,100799.59
2023-04-20T23:40:37.298Z,100808.91
2023-04-20T23:43:05.367Z,100803.66
2023-04-20T23:45:33.421Z,100795.91
2023-04-20T23:48:01.749Z,100802.75
2023-04-20T23:50:29.499Z,100797.50
2023-04-20T23:52:57.746Z,100800.03
2023-04-20T23:55:25.469Z,100801.00
2023-04-20T23:57:54.417Z,100795.78
